Terminal Aerodrome Forecast
Issued by NWS Kansas City/Pleasant Hill, MO

Home | Current Version | Previous Version | Text Only | Print | Product List | Glossary On
Versions: 1 2 3 4 5 6 7 8 9 10 11 12 13 14 15 16 17 18 19 20 21 22 23
672
FTUS43 KEAX 300801 AAA
TAFMCI
TAF AMD
KMCI 300801Z 3008/0106 08012KT 5SM BR VCSH OVC003
     FM301500 15009KT P6SM OVC015
     FM302100 32008KT P6SM OVC025=

USA.gov is the U.S. government's official web portal to all federal, state and local government web resources and services.